Terminal Aerodrome Forecast
Issued by NWS

Home | Current Version | Previous Version | Text Only | Print | Product List | Glossary On
Versions: 1 2 3 4 5 6 7 8 9 10 11 12 13 14 15 16 17 18
000
FTUS46 KSGX 290500
TAFONT
TAF
KONT 290528Z 2906/3012 27003KT P6SM FEW250
     FM292200 26007KT P6SM SCT120
     FM300200 VRB04KT P6SM SCT020
     FM300700 14005KT P6SM BKN022=

USA.gov is the U.S. government's official web portal to all federal, state and local government web resources and services.